createdAt,value
2017-10-07T00:00:16.396Z,89.37
2017-10-07T00:01:16.428Z,89.47
2017-10-07T00:02:16.462Z,89.98
2017-10-07T00:03:16.498Z,90.32
2017-10-07T00:04:16.529Z,89.65
2017-10-07T00:05:16.567Z,89.94
2017-10-07T00:06:16.600Z,90.32
2017-10-07T00:07:16.631Z,89.94
2017-10-07T00:08:16.666Z,90.22
2017-10-07T00:09:16.699Z,90.61
2017-10-07T00:10:16.732Z,90.22
2017-10-07T00:11:16.766Z,90.32
2017-10-07T00:12:16.798Z,90.22
2017-10-07T00:13:16.839Z,90.03
2017-10-07T00:14:16.871Z,90.32
2017-10-07T00:15:16.902Z,90.22
2017-10-07T00:16:16.938Z,90.70
2017-10-07T00:17:16.973Z,90.70
2017-10-07T00:18:17.003Z,90.70
2017-10-07T00:19:17.041Z,90.13
2017-10-07T00:20:17.070Z,90.99
2017-10-07T00:21:17.106Z,90.89
2017-10-07T00:22:17.142Z,90.51
2017-10-07T00:23:17.177Z,90.42
2017-10-07T00:24:17.206Z,90.61
2017-10-07T00:25:17.240Z,90.32
2017-10-07T00:26:17.274Z,90.22
2017-10-07T00:27:17.310Z,90.13
2017-10-07T00:28:17.343Z,90.70
2017-10-07T00:29:17.377Z,90.32
2017-10-07T00:30:17.411Z,90.22
2017-10-07T00:31:17.444Z,90.99
2017-10-07T00:32:17.477Z,90.61
2017-10-07T00:33:17.515Z,90.89
2017-10-07T00:34:17.545Z,90.89
2017-10-07T00:35:17.578Z,90.51
2017-10-07T00:36:17.612Z,90.61
2017-10-07T00:37:17.646Z,90.22
2017-10-07T00:38:17.692Z,90.22
2017-10-07T00:39:17.714Z,90.32
2017-10-07T00:40:17.748Z,90.22
2017-10-07T00:41:17.785Z,90.51
2017-10-07T00:42:17.821Z,90.32
2017-10-07T00:43:17.852Z,90.32
2017-10-07T00:44:17.885Z,90.80
2017-10-07T00:45:17.918Z,90.99
2017-10-07T00:46:17.960Z,90.89
2017-10-07T00:47:17.987Z,90.22
2017-10-07T00:48:18.020Z,90.51
2017-10-07T00:49:18.059Z,89.94
2017-10-07T00:50:18.091Z,90.22
2017-10-07T00:51:18.126Z,90.32
2017-10-07T00:52:18.156Z,90.51
2017-10-07T00:53:18.195Z,90.03
2017-10-07T00:54:18.225Z,90.32
2017-10-07T00:55:18.257Z,90.22
2017-10-07T00:56:18.290Z,90.13
2017-10-07T00:57:18.326Z,90.13
2017-10-07T00:58:18.361Z,90.42
2017-10-07T00:59:18.394Z,90.13
2017-10-07T01:00:18.427Z,90.51
2017-10-07T01:01:18.461Z,90.36
2017-10-07T01:02:18.496Z,90.70
2017-10-07T01:03:18.530Z,90.51
2017-10-07T01:04:18.563Z,90.42
2017-10-07T01:05:18.602Z,90.32
2017-10-07T01:06:18.640Z,90.22
2017-10-07T01:07:18.667Z,90.70
2017-10-07T01:08:18.708Z,90.75
2017-10-07T01:09:18.740Z,90.99
2017-10-07T01:10:18.768Z,90.42
2017-10-07T01:11:18.803Z,90.61
2017-10-07T01:12:18.838Z,90.70
2017-10-07T01:13:18.874Z,90.89
2017-10-07T01:14:18.906Z,90.89
2017-10-07T01:15:18.939Z,90.99
2017-10-07T01:16:18.971Z,90.80
2017-10-07T01:17:19.007Z,91.17
2017-10-07T01:18:19.044Z,91.27
2017-10-07T01:19:19.078Z,90.89
2017-10-07T01:20:19.118Z,91.08
2017-10-07T01:21:19.151Z,90.61
2017-10-07T01:22:19.179Z,90.32
2017-10-07T01:23:19.212Z,90.32
2017-10-07T01:24:19.262Z,90.61
2017-10-07T01:25:19.283Z,91.17
2017-10-07T01:26:19.320Z,91.46
2017-10-07T01:27:19.348Z,90.42
2017-10-07T01:28:19.385Z,90.32
2017-10-07T01:29:19.417Z,90.70
2017-10-07T01:30:19.451Z,90.51
2017-10-07T01:31:19.489Z,90.61
2017-10-07T01:32:19.519Z,90.99
2017-10-07T01:33:19.554Z,91.27
2017-10-07T01:34:19.591Z,91.37
2017-10-07T01:35:19.628Z,91.27
2017-10-07T01:36:19.660Z,90.65
2017-10-07T01:37:19.690Z,90.51
2017-10-07T01:38:19.725Z,90.65
2017-10-07T01:39:19.758Z,90.17
2017-10-07T01:40:19.793Z,90.65
2017-10-07T01:41:19.824Z,90.94
2017-10-07T01:42:19.860Z,91.51
2017-10-07T01:43:19.897Z,91.31
2017-10-07T01:44:19.928Z,91.31
2017-10-07T01:45:19.965Z,91.22
2017-10-07T01:46:19.996Z,91.89
2017-10-07T01:47:20.036Z,91.89
2017-10-07T01:48:20.065Z,92.55
2017-10-07T01:49:20.099Z,92.08
2017-10-07T01:50:20.136Z,92.03
2017-10-07T01:51:20.171Z,91.70
2017-10-07T01:52:20.206Z,91.89
2017-10-07T01:53:20.239Z,91.89
2017-10-07T01:54:20.271Z,91.89
2017-10-07T01:55:20.309Z,92.13
2017-10-07T01:56:20.337Z,91.89
2017-10-07T01:57:20.373Z,91.70
2017-10-07T01:58:20.418Z,91.79
2017-10-07T01:59:20.441Z,91.79
2017-10-07T02:00:20.478Z,91.70
2017-10-07T02:01:20.508Z,91.89
2017-10-07T02:02:20.546Z,91.70
2017-10-07T02:03:20.578Z,91.31
2017-10-07T02:04:20.612Z,91.41
2017-10-07T02:05:20.645Z,91.89
2017-10-07T02:06:20.679Z,91.99
2017-10-07T02:07:20.718Z,92.74
2017-10-07T02:08:20.750Z,91.89
2017-10-07T02:09:20.781Z,91.60
2017-10-07T02:10:20.817Z,91.60
2017-10-07T02:11:20.853Z,91.51
2017-10-07T02:12:20.885Z,91.41
2017-10-07T02:13:20.921Z,91.99
2017-10-07T02:14:20.952Z,91.79
2017-10-07T02:15:20.990Z,91.79
2017-10-07T02:16:21.024Z,91.99
2017-10-07T02:17:21.057Z,91.89
2017-10-07T02:18:21.090Z,92.08
2017-10-07T02:19:21.127Z,92.46
2017-10-07T02:20:21.158Z,92.18
2017-10-07T02:21:21.194Z,92.18
2017-10-07T02:22:21.231Z,92.08
2017-10-07T02:23:21.270Z,92.84
2017-10-07T02:24:21.297Z,92.36
2017-10-07T02:25:21.330Z,92.27
2017-10-07T02:26:21.366Z,92.55
2017-10-07T02:27:21.398Z,92.55
2017-10-07T02:28:21.437Z,93.22
2017-10-07T02:29:21.467Z,93.98
2017-10-07T02:30:21.501Z,94.65
2017-10-07T02:31:21.535Z,93.79
2017-10-07T02:32:21.572Z,93.98
2017-10-07T02:33:21.603Z,94.46
2017-10-07T02:34:21.640Z,94.46
2017-10-07T02:35:21.671Z,94.42
2017-10-07T02:36:21.703Z,95.17
2017-10-07T02:37:21.743Z,95.17
2017-10-07T02:38:21.774Z,95.51
2017-10-07T02:39:21.812Z,95.22
2017-10-07T02:40:21.841Z,95.17
2017-10-07T02:41:21.875Z,96.12
2017-10-07T02:42:21.912Z,95.08
2017-10-07T02:43:21.945Z,95.56
2017-10-07T02:44:21.977Z,95.65
2017-10-07T02:45:22.015Z,95.65
2017-10-07T02:46:22.048Z,95.84
2017-10-07T02:47:22.084Z,95.84
2017-10-07T02:48:22.113Z,95.36
2017-10-07T02:49:22.157Z,95.17
2017-10-07T02:50:22.182Z,95.08
2017-10-07T02:51:22.223Z,95.17
2017-10-07T02:52:22.251Z,95.36
2017-10-07T02:53:22.293Z,95.75
2017-10-07T02:54:22.319Z,95.84
2017-10-07T02:55:22.356Z,95.36
2017-10-07T02:56:22.391Z,95.36
2017-10-07T02:57:22.421Z,95.46
2017-10-07T02:58:22.455Z,95.08
2017-10-07T02:59:22.489Z,94.89
2017-10-07T03:00:22.526Z,95.36
2017-10-07T03:01:22.558Z,95.27
2017-10-07T03:02:22.591Z,95.08
2017-10-07T03:03:22.625Z,95.27
2017-10-07T03:04:22.659Z,95.17
2017-10-07T03:05:22.691Z,95.46
2017-10-07T03:06:22.726Z,95.08
2017-10-07T03:07:22.761Z,95.08
2017-10-07T03:08:22.796Z,95.17
2017-10-07T03:09:22.829Z,95.84
2017-10-07T03:10:22.866Z,95.56
2017-10-07T03:11:22.899Z,95.08
2017-10-07T03:12:22.936Z,94.93
2017-10-07T03:13:22.963Z,95.08
2017-10-07T03:14:23.037Z,95.46
2017-10-07T03:15:23.037Z,94.98
2017-10-07T03:16:23.069Z,95.65
2017-10-07T03:17:23.101Z,95.08
2017-10-07T03:18:23.150Z,95.27
2017-10-07T03:19:23.170Z,94.70
2017-10-07T03:20:23.202Z,93.94
2017-10-07T03:21:23.235Z,93.18
2017-10-07T03:22:23.272Z,93.37
2017-10-07T03:23:23.305Z,93.55
2017-10-07T03:24:23.341Z,93.94
2017-10-07T03:25:23.384Z,93.84
2017-10-07T03:26:23.407Z,93.84
2017-10-07T03:27:23.438Z,93.74
2017-10-07T03:28:23.472Z,93.46
2017-10-07T03:29:23.509Z,94.13
2017-10-07T03:30:23.544Z,94.70
2017-10-07T03:31:23.577Z,93.74
2017-10-07T03:32:23.609Z,94.03
2017-10-07T03:33:23.652Z,93.74
2017-10-07T03:34:23.677Z,93.74
2017-10-07T03:35:23.713Z,93.74
2017-10-07T03:36:23.750Z,93.74
2017-10-07T03:37:23.786Z,93.55
2017-10-07T03:38:23.814Z,94.42
2017-10-07T03:39:23.844Z,94.70
2017-10-07T03:40:23.879Z,94.13
2017-10-07T03:41:23.913Z,94.60
2017-10-07T03:42:23.952Z,94.60
2017-10-07T03:43:23.984Z,94.60
2017-10-07T03:44:24.014Z,94.74
2017-10-07T03:45:24.051Z,94.70
2017-10-07T03:46:24.099Z,94.60
2017-10-07T03:47:24.120Z,94.51
2017-10-07T03:48:24.154Z,94.42
2017-10-07T03:49:24.184Z,94.22
2017-10-07T03:50:24.221Z,94.79
2017-10-07T03:51:24.253Z,94.89
2017-10-07T03:52:24.288Z,93.84
2017-10-07T03:53:24.319Z,93.46
2017-10-07T03:54:24.357Z,93.74
2017-10-07T03:55:24.388Z,93.94
2017-10-07T03:56:24.422Z,93.65
2017-10-07T03:57:24.455Z,94.51
2017-10-07T03:58:24.494Z,94.22
2017-10-07T03:59:24.524Z,94.13
2017-10-07T04:00:24.558Z,94.79
2017-10-07T04:01:24.591Z,94.22
2017-10-07T04:02:24.629Z,95.08
2017-10-07T04:03:24.658Z,95.36
2017-10-07T04:04:24.703Z,94.79
2017-10-07T04:05:24.728Z,95.17
2017-10-07T04:06:24.761Z,95.27
2017-10-07T04:07:24.795Z,95.46
2017-10-07T04:08:24.833Z,95.08
2017-10-07T04:09:24.862Z,95.36
2017-10-07T04:10:24.895Z,95.27
2017-10-07T04:11:24.930Z,94.79
2017-10-07T04:12:24.969Z,95.08
2017-10-07T04:13:24.998Z,94.89
2017-10-07T04:14:25.035Z,94.42
2017-10-07T04:15:25.071Z,95.27
2017-10-07T04:16:25.097Z,95.17
2017-10-07T04:17:25.134Z,96.12
2017-10-07T04:18:25.167Z,96.12
2017-10-07T04:19:25.201Z,95.36
2017-10-07T04:20:25.234Z,94.79
2017-10-07T04:21:25.266Z,95.46
2017-10-07T04:22:25.301Z,94.70
2017-10-07T04:23:25.337Z,94.89
2017-10-07T04:24:25.373Z,94.60
2017-10-07T04:25:25.403Z,94.51
2017-10-07T04:26:25.440Z,94.89
2017-10-07T04:27:25.474Z,94.79
2017-10-07T04:28:25.506Z,95.27
2017-10-07T04:29:25.540Z,95.27
2017-10-07T04:30:25.575Z,94.70
2017-10-07T04:31:25.605Z,94.79
2017-10-07T04:32:25.638Z,94.60
2017-10-07T04:33:25.673Z,94.70
2017-10-07T04:34:25.712Z,94.89
2017-10-07T04:35:25.740Z,94.70
2017-10-07T04:36:25.775Z,94.13
2017-10-07T04:37:25.809Z,94.22
2017-10-07T04:38:25.843Z,94.51
2017-10-07T04:39:25.876Z,94.22
2017-10-07T04:40:25.912Z,94.60
2017-10-07T04:41:25.945Z,94.60
2017-10-07T04:42:25.981Z,94.22
2017-10-07T04:43:26.016Z,94.13
2017-10-07T04:44:26.045Z,94.70
2017-10-07T04:45:26.084Z,94.79
2017-10-07T04:46:26.118Z,94.32
2017-10-07T04:47:26.149Z,93.65
2017-10-07T04:48:26.181Z,93.55
2017-10-07T04:49:26.217Z,93.74
2017-10-07T04:50:26.251Z,94.03
2017-10-07T04:51:26.286Z,94.51
2017-10-07T04:52:26.325Z,94.79
2017-10-07T04:53:26.351Z,94.42
2017-10-07T04:54:26.389Z,94.79
2017-10-07T04:55:26.421Z,93.74
2017-10-07T04:56:26.453Z,93.84
2017-10-07T04:57:26.498Z,93.94
2017-10-07T04:58:26.522Z,93.74
2017-10-07T04:59:26.555Z,93.84
2017-10-07T05:00:26.587Z,93.74
2017-10-07T05:01:26.622Z,93.55
2017-10-07T05:02:26.657Z,93.18
2017-10-07T05:03:26.694Z,93.55
2017-10-07T05:04:26.725Z,93.46
2017-10-07T05:05:26.762Z,93.74
2017-10-07T05:06:26.794Z,93.74
2017-10-07T05:07:26.829Z,93.46
2017-10-07T05:08:26.860Z,93.74
2017-10-07T05:09:26.899Z,93.37
2017-10-07T05:10:26.929Z,93.08
2017-10-07T05:11:26.970Z,92.99
2017-10-07T05:12:26.998Z,93.84
2017-10-07T05:13:27.031Z,93.74
2017-10-07T05:14:27.064Z,93.55
2017-10-07T05:15:27.098Z,93.46
2017-10-07T05:16:27.132Z,93.46
2017-10-07T05:17:27.169Z,93.46
2017-10-07T05:18:27.203Z,93.94
2017-10-07T05:19:27.235Z,93.55
2017-10-07T05:20:27.270Z,93.74
2017-10-07T05:21:27.303Z,93.08
2017-10-07T05:22:27.343Z,93.37
2017-10-07T05:23:27.370Z,93.55
2017-10-07T05:24:27.412Z,93.46
2017-10-07T05:25:27.437Z,93.65
2017-10-07T05:26:27.473Z,93.46
2017-10-07T05:27:27.505Z,92.99
2017-10-07T05:28:27.539Z,92.79
2017-10-07T05:29:27.572Z,92.89
2017-10-07T05:30:27.609Z,92.51
2017-10-07T05:31:27.642Z,92.79
2017-10-07T05:32:27.678Z,92.99
2017-10-07T05:33:27.714Z,92.99
2017-10-07T05:34:27.741Z,92.41
2017-10-07T05:35:27.779Z,92.03
2017-10-07T05:36:27.816Z,92.03
2017-10-07T05:37:27.847Z,92.70
2017-10-07T05:38:27.881Z,93.27
2017-10-07T05:39:27.917Z,92.79
2017-10-07T05:40:27.947Z,92.32
2017-10-07T05:41:27.983Z,92.51
2017-10-07T05:42:28.020Z,92.60
2017-10-07T05:43:28.055Z,92.22
2017-10-07T05:44:28.086Z,92.41
2017-10-07T05:45:28.118Z,92.22
2017-10-07T05:46:28.159Z,92.13
2017-10-07T05:47:28.187Z,92.13
2017-10-07T05:48:28.225Z,92.41
2017-10-07T05:49:28.256Z,92.32
2017-10-07T05:50:28.288Z,92.13
2017-10-07T05:51:28.325Z,92.41
2017-10-07T05:52:28.361Z,92.41
2017-10-07T05:53:28.398Z,92.13
2017-10-07T05:54:28.426Z,92.32
2017-10-07T05:55:28.463Z,92.36
2017-10-07T05:56:28.495Z,92.65
2017-10-07T05:57:28.527Z,92.65
2017-10-07T05:58:28.560Z,92.13
2017-10-07T05:59:28.597Z,92.08
2017-10-07T06:00:28.629Z,92.65
2017-10-07T06:01:28.684Z,92.65
2017-10-07T06:02:28.712Z,92.27
2017-10-07T06:03:28.738Z,92.46
2017-10-07T06:04:28.774Z,92.46
2017-10-07T06:05:28.802Z,92.08
2017-10-07T06:06:28.834Z,92.18
2017-10-07T06:07:28.879Z,92.65
2017-10-07T06:08:28.939Z,92.46
2017-10-07T06:09:28.941Z,92.27
2017-10-07T06:10:28.976Z,92.46
2017-10-07T06:11:29.009Z,92.74
2017-10-07T06:12:29.042Z,92.27
2017-10-07T06:13:29.076Z,92.36
2017-10-07T06:14:29.113Z,92.36
2017-10-07T06:15:29.146Z,92.36
2017-10-07T06:16:29.176Z,92.36
2017-10-07T06:17:29.214Z,92.74
2017-10-07T06:18:29.247Z,92.08
2017-10-07T06:19:29.281Z,91.79
2017-10-07T06:20:29.315Z,91.51
2017-10-07T06:21:29.348Z,91.70
2017-10-07T06:22:29.384Z,91.79
2017-10-07T06:23:29.417Z,91.70
2017-10-07T06:24:29.466Z,91.51
2017-10-07T06:25:29.491Z,92.18
2017-10-07T06:26:29.525Z,91.31
2017-10-07T06:27:29.558Z,91.13
2017-10-07T06:28:29.590Z,91.13
2017-10-07T06:29:29.622Z,90.94
2017-10-07T06:30:29.657Z,91.41
2017-10-07T06:31:29.693Z,91.31
2017-10-07T06:32:29.727Z,92.08
2017-10-07T06:33:29.761Z,91.79
2017-10-07T06:34:29.797Z,91.89
2017-10-07T06:35:29.831Z,91.89
2017-10-07T06:36:29.873Z,91.51
2017-10-07T06:37:29.897Z,91.79
2017-10-07T06:38:29.940Z,91.31
2017-10-07T06:39:29.968Z,90.56
2017-10-07T06:40:29.999Z,90.56
2017-10-07T06:41:30.034Z,90.46
2017-10-07T06:42:30.071Z,90.75
2017-10-07T06:43:30.107Z,90.65
2017-10-07T06:44:30.140Z,90.94
2017-10-07T06:45:30.178Z,91.22
2017-10-07T06:46:30.208Z,90.27
2017-10-07T06:47:30.243Z,90.56
2017-10-07T06:48:30.275Z,91.41
2017-10-07T06:49:30.309Z,90.65
2017-10-07T06:50:30.347Z,90.56
2017-10-07T06:51:30.380Z,91.03
2017-10-07T06:52:30.420Z,90.36
2017-10-07T06:53:30.453Z,91.31
2017-10-07T06:54:30.483Z,90.75
2017-10-07T06:55:30.518Z,91.41
2017-10-07T06:56:30.558Z,91.41
2017-10-07T06:57:30.587Z,91.51
2017-10-07T06:58:30.621Z,91.13
2017-10-07T06:59:30.660Z,91.13
2017-10-07T07:00:30.690Z,91.31
2017-10-07T07:01:30.729Z,91.51
2017-10-07T07:02:30.765Z,91.31
2017-10-07T07:03:30.797Z,90.70
2017-10-07T07:04:30.826Z,90.84
2017-10-07T07:05:30.868Z,90.50
2017-10-07T07:06:30.899Z,90.75
2017-10-07T07:07:30.939Z,90.12
2017-10-07T07:08:30.979Z,89.94
2017-10-07T07:09:31.002Z,90.41
2017-10-07T07:10:31.038Z,90.41
2017-10-07T07:11:31.072Z,89.84
2017-10-07T07:12:31.106Z,89.84
2017-10-07T07:13:31.142Z,89.17
2017-10-07T07:14:31.174Z,88.89
2017-10-07T07:15:31.214Z,89.07
2017-10-07T07:16:31.247Z,88.41
2017-10-07T07:17:31.286Z,88.41
2017-10-07T07:18:31.314Z,88.12
2017-10-07T07:19:31.354Z,87.65
2017-10-07T07:20:31.389Z,88.31
2017-10-07T07:21:31.424Z,88.22
2017-10-07T07:22:31.454Z,88.12
2017-10-07T07:23:31.491Z,88.03
2017-10-07T07:24:31.531Z,87.46
2017-10-07T07:25:31.562Z,87.93
2017-10-07T07:26:31.593Z,86.98
2017-10-07T07:27:31.635Z,88.03
2017-10-07T07:28:31.670Z,87.27
2017-10-07T07:29:31.704Z,87.36
2017-10-07T07:30:31.740Z,87.84
2017-10-07T07:31:31.780Z,87.55
2017-10-07T07:32:31.807Z,88.03
2017-10-07T07:33:31.840Z,88.41
2017-10-07T07:34:31.876Z,88.03
2017-10-07T07:35:31.922Z,88.22
2017-10-07T07:36:31.945Z,87.93
2017-10-07T07:37:31.982Z,87.55
2017-10-07T07:38:32.016Z,87.55
2017-10-07T07:39:32.052Z,88.22
2017-10-07T07:40:32.089Z,88.89
2017-10-07T07:41:32.125Z,88.79
2017-10-07T07:42:32.161Z,88.89
2017-10-07T07:43:32.196Z,88.03
2017-10-07T07:44:32.232Z,88.79
2017-10-07T07:45:32.264Z,88.89
2017-10-07T07:46:32.298Z,88.12
2017-10-07T07:47:32.338Z,88.51
2017-10-07T07:48:32.372Z,88.70
2017-10-07T07:49:32.405Z,89.07
2017-10-07T07:50:32.445Z,88.70
2017-10-07T07:51:32.477Z,88.79
2017-10-07T07:52:32.509Z,88.70
2017-10-07T07:53:32.546Z,89.07
2017-10-07T07:54:32.581Z,88.79
2017-10-07T07:55:32.617Z,88.03
2017-10-07T07:56:32.653Z,88.31
2017-10-07T07:57:32.690Z,88.79
2017-10-07T07:58:32.721Z,89.07
2017-10-07T07:59:32.756Z,88.51
2017-10-07T08:00:32.791Z,88.31
2017-10-07T08:01:32.829Z,88.31
2017-10-07T08:02:32.861Z,88.22
2017-10-07T08:03:32.897Z,87.74
2017-10-07T08:04:32.930Z,88.31
2017-10-07T08:05:32.973Z,88.51
2017-10-07T08:06:33.006Z,88.22
2017-10-07T08:07:33.039Z,87.84
2017-10-07T08:08:33.072Z,86.51
2017-10-07T08:09:33.110Z,87.46
2017-10-07T08:10:33.142Z,86.98
2017-10-07T08:11:33.178Z,86.22
2017-10-07T08:12:33.214Z,86.22
2017-10-07T08:13:33.247Z,87.17
2017-10-07T08:14:33.285Z,87.46
2017-10-07T08:15:33.318Z,86.51
2017-10-07T08:16:33.351Z,87.17
2017-10-07T08:17:33.392Z,88.12
2017-10-07T08:18:33.427Z,88.79
2017-10-07T08:19:33.460Z,88.70
2017-10-07T08:20:33.497Z,89.26
2017-10-07T08:21:33.531Z,90.03
2017-10-07T08:22:33.563Z,90.60
2017-10-07T08:23:33.602Z,91.55
2017-10-07T08:24:33.636Z,90.70
2017-10-07T08:25:33.668Z,90.98
2017-10-07T08:26:33.703Z,91.46
2017-10-07T08:27:33.741Z,91.55
2017-10-07T08:28:33.774Z,92.18
2017-10-07T08:29:33.810Z,92.32
2017-10-07T08:30:33.845Z,92.41
2017-10-07T08:31:33.887Z,91.84
2017-10-07T08:32:33.916Z,92.74
2017-10-07T08:33:33.973Z,92.36
2017-10-07T08:34:33.990Z,91.89
2017-10-07T08:35:34.022Z,91.31
2017-10-07T08:36:34.058Z,91.51
2017-10-07T08:37:34.089Z,91.41
2017-10-07T08:38:34.126Z,91.79
2017-10-07T08:39:34.164Z,91.99
2017-10-07T08:40:34.202Z,93.46
2017-10-07T08:41:34.237Z,93.84
2017-10-07T08:42:34.267Z,93.46
2017-10-07T08:43:34.306Z,92.41
2017-10-07T08:44:34.341Z,91.84
2017-10-07T08:45:34.373Z,91.17
2017-10-07T08:46:34.408Z,92.41
2017-10-07T08:47:34.442Z,92.89
2017-10-07T08:48:34.477Z,92.50
2017-10-07T08:49:34.511Z,92.69
2017-10-07T08:50:34.549Z,92.50
2017-10-07T08:51:34.582Z,91.65
2017-10-07T08:52:34.621Z,91.55
2017-10-07T08:53:34.659Z,91.74
2017-10-07T08:54:34.686Z,91.88
2017-10-07T08:55:34.726Z,90.74
2017-10-07T08:56:34.757Z,89.60
2017-10-07T08:57:34.794Z,89.60
2017-10-07T08:58:34.828Z,89.60
2017-10-07T08:59:34.864Z,90.08
2017-10-07T09:00:34.903Z,88.36
2017-10-07T09:01:34.935Z,88.40
2017-10-07T09:02:35.031Z,88.40
2017-10-07T09:03:35.008Z,88.21
2017-10-07T09:04:35.044Z,86.55
2017-10-07T09:05:35.077Z,86.45
2017-10-07T09:06:35.111Z,86.55
2017-10-07T09:07:35.151Z,86.69
2017-10-07T09:08:35.184Z,86.30
2017-10-07T09:09:35.217Z,86.16
2017-10-07T09:10:35.256Z,86.16
2017-10-07T09:11:35.290Z,86.69
2017-10-07T09:12:35.326Z,86.69
2017-10-07T09:13:35.362Z,85.83
2017-10-07T09:14:35.401Z,86.59
2017-10-07T09:15:35.433Z,86.78
2017-10-07T09:16:35.870Z,86.30
2017-10-07T09:17:35.504Z,85.83
2017-10-07T09:18:35.540Z,85.54
2017-10-07T09:19:35.577Z,84.88
2017-10-07T09:20:35.611Z,85.73
2017-10-07T09:21:35.651Z,85.64
2017-10-07T09:22:35.685Z,85.35
2017-10-07T09:23:35.721Z,85.54
2017-10-07T09:24:35.757Z,86.11
2017-10-07T09:25:35.790Z,85.73
2017-10-07T09:26:35.832Z,85.25
2017-10-07T09:27:35.866Z,84.88
2017-10-07T09:28:35.904Z,83.73
2017-10-07T09:29:35.937Z,84.30
2017-10-07T09:30:35.974Z,84.49
2017-10-07T09:31:36.006Z,83.73
2017-10-07T09:32:36.044Z,83.35
2017-10-07T09:33:36.082Z,82.20
2017-10-07T09:34:36.115Z,82.20
2017-10-07T09:35:36.153Z,81.73
2017-10-07T09:36:36.191Z,81.82
2017-10-07T09:37:36.224Z,80.24
2017-10-07T09:38:36.265Z,81.01
2017-10-07T09:39:36.297Z,80.01
2017-10-07T09:40:36.332Z,81.63
2017-10-07T09:41:36.373Z,82.20
2017-10-07T09:42:36.407Z,82.87
2017-10-07T09:43:36.442Z,83.06
2017-10-07T09:44:36.478Z,81.63
2017-10-07T09:45:36.516Z,81.48
2017-10-07T09:46:36.551Z,80.96
2017-10-07T09:47:36.596Z,79.48
2017-10-07T09:48:36.628Z,79.63
2017-10-07T09:49:36.660Z,80.96
2017-10-07T09:50:36.697Z,81.25
2017-10-07T09:51:36.732Z,80.20
2017-10-07T09:52:36.782Z,80.58
2017-10-07T09:53:36.805Z,81.06
2017-10-07T09:54:36.843Z,80.96
2017-10-07T09:55:36.876Z,80.77
2017-10-07T09:56:36.915Z,82.20
2017-10-07T09:57:36.950Z,81.63
2017-10-07T09:58:37.011Z,82.20
2017-10-07T09:59:37.023Z,80.87
2017-10-07T10:00:37.060Z,81.92
2017-10-07T10:01:37.094Z,82.20
2017-10-07T10:02:37.129Z,82.20
2017-10-07T10:03:37.180Z,80.96
2017-10-07T10:04:37.203Z,82.01
2017-10-07T10:05:37.237Z,81.92
2017-10-07T10:06:37.275Z,81.63
2017-10-07T10:07:37.309Z,81.82
2017-10-07T10:08:37.347Z,82.40
2017-10-07T10:09:37.386Z,82.30
2017-10-07T10:10:37.418Z,81.63
2017-10-07T10:11:37.455Z,81.63
2017-10-07T10:12:37.494Z,81.35
2017-10-07T10:13:37.531Z,79.91
2017-10-07T10:14:37.562Z,79.82
2017-10-07T10:15:37.600Z,79.35
2017-10-07T10:16:37.638Z,80.11
2017-10-07T10:17:37.671Z,78.86
2017-10-07T10:18:37.707Z,78.49
2017-10-07T10:19:37.746Z,76.29
2017-10-07T10:20:37.778Z,78.01
2017-10-07T10:21:37.815Z,77.62
2017-10-07T10:22:37.858Z,77.91
2017-10-07T10:23:37.889Z,78.77
2017-10-07T10:24:37.923Z,78.72
2017-10-07T10:25:37.963Z,76.62
2017-10-07T10:26:37.998Z,74.71
2017-10-07T10:27:38.033Z,74.42
2017-10-07T10:28:38.068Z,73.94
2017-10-07T10:29:38.106Z,74.99
2017-10-07T10:30:38.144Z,73.56
2017-10-07T10:31:38.185Z,73.37
2017-10-07T10:32:38.216Z,73.41
2017-10-07T10:33:38.253Z,73.22
2017-10-07T10:34:38.295Z,73.25
2017-10-07T10:35:38.325Z,72.01
2017-10-07T10:36:38.373Z,71.72
2017-10-07T10:37:38.397Z,70.67
2017-10-07T10:38:38.431Z,70.39
2017-10-07T10:39:38.471Z,71.53
2017-10-07T10:40:38.502Z,68.73
2017-10-07T10:41:38.539Z,68.92
2017-10-07T10:42:38.579Z,70.73
2017-10-07T10:43:38.618Z,69.78
2017-10-07T10:44:38.650Z,69.78
2017-10-07T10:45:38.685Z,69.68
2017-10-07T10:46:38.724Z,69.68
2017-10-07T10:47:38.761Z,69.21
2017-10-07T10:48:38.851Z,69.31
2017-10-07T10:49:38.833Z,68.06
2017-10-07T10:50:38.871Z,68.35
2017-10-07T10:51:38.906Z,68.16
2017-10-07T10:52:38.946Z,67.30
2017-10-07T10:53:38.983Z,68.06
2017-10-07T10:54:39.021Z,67.30
2017-10-07T10:55:39.054Z,67.36
2017-10-07T10:56:39.096Z,67.83
2017-10-07T10:57:39.127Z,68.92
2017-10-07T10:58:39.170Z,68.16
2017-10-07T10:59:39.207Z,68.98
2017-10-07T11:00:39.239Z,69.31
2017-10-07T11:01:39.279Z,69.97
2017-10-07T11:02:39.312Z,69.97
2017-10-07T11:03:39.350Z,67.65
2017-10-07T11:04:39.389Z,68.32
2017-10-07T11:05:39.425Z,69.17
2017-10-07T11:06:39.466Z,68.60
2017-10-07T11:07:39.496Z,68.79
2017-10-07T11:08:39.537Z,69.65
2017-10-07T11:09:39.581Z,69.46
2017-10-07T11:10:39.610Z,69.56
2017-10-07T11:11:39.643Z,70.26
2017-10-07T11:12:39.685Z,69.21
2017-10-07T11:13:39.722Z,68.73
2017-10-07T11:14:39.757Z,69.21
2017-10-07T11:15:39.798Z,67.93
2017-10-07T11:16:39.828Z,68.32
2017-10-07T11:17:39.897Z,69.65
2017-10-07T11:18:39.906Z,69.17
2017-10-07T11:19:39.946Z,70.13
2017-10-07T11:20:39.976Z,69.74
2017-10-07T11:21:40.013Z,69.65
2017-10-07T11:22:40.052Z,70.61
2017-10-07T11:23:40.087Z,70.32
2017-10-07T11:24:40.127Z,70.61
2017-10-07T11:25:40.162Z,70.89
2017-10-07T11:26:40.199Z,70.79
2017-10-07T11:27:40.234Z,70.61
2017-10-07T11:28:40.268Z,69.74
2017-10-07T11:29:40.308Z,70.79
2017-10-07T11:30:40.343Z,70.98
2017-10-07T11:31:40.381Z,70.70
2017-10-07T11:32:40.418Z,70.22
2017-10-07T11:33:40.453Z,70.61
2017-10-07T11:34:40.491Z,69.65
2017-10-07T11:35:40.527Z,69.08
2017-10-07T11:36:40.564Z,68.88
2017-10-07T11:37:40.604Z,69.84
2017-10-07T11:38:40.638Z,68.41
2017-10-07T11:39:40.675Z,67.46
2017-10-07T11:40:40.713Z,67.65
2017-10-07T11:41:40.780Z,67.46
2017-10-07T11:42:40.784Z,67.58
2017-10-07T11:43:40.827Z,66.82
2017-10-07T11:44:40.861Z,65.48
2017-10-07T11:45:40.896Z,64.81
2017-10-07T11:46:40.935Z,65.39
2017-10-07T11:47:40.969Z,65.48
2017-10-07T11:48:41.008Z,65.30
2017-10-07T11:49:41.042Z,65.20
2017-10-07T11:50:41.079Z,66.44
2017-10-07T11:51:41.123Z,65.77
2017-10-07T11:52:41.154Z,64.72
2017-10-07T11:53:41.192Z,64.25
2017-10-07T11:54:41.228Z,64.72
2017-10-07T11:55:41.265Z,64.91
2017-10-07T11:56:41.301Z,65.67
2017-10-07T11:57:41.340Z,65.87
2017-10-07T11:58:41.376Z,66.53
2017-10-07T11:59:41.429Z,65.48
2017-10-07T12:00:41.449Z,65.77
2017-10-07T12:01:41.486Z,66.35
2017-10-07T12:02:41.523Z,66.53
2017-10-07T12:03:41.559Z,66.15
2017-10-07T12:04:41.605Z,66.35
2017-10-07T12:05:41.637Z,66.25
2017-10-07T12:06:41.669Z,65.01
2017-10-07T12:07:41.710Z,64.81
2017-10-07T12:08:41.748Z,66.35
2017-10-07T12:09:41.780Z,66.06
2017-10-07T12:10:41.825Z,66.72
2017-10-07T12:11:41.855Z,65.67
2017-10-07T12:12:41.891Z,65.20
2017-10-07T12:13:41.932Z,64.72
2017-10-07T12:14:41.965Z,64.72
2017-10-07T12:15:42.005Z,65.10
2017-10-07T12:16:42.044Z,64.81
2017-10-07T12:17:42.075Z,64.37
2017-10-07T12:18:42.115Z,63.89
2017-10-07T12:19:42.151Z,62.27
2017-10-07T12:20:42.191Z,62.65
2017-10-07T12:21:42.225Z,62.24
2017-10-07T12:22:42.260Z,62.34
2017-10-07T12:23:42.301Z,62.24
2017-10-07T12:24:42.337Z,62.34
2017-10-07T12:25:42.375Z,63.29
2017-10-07T12:26:42.413Z,63.10
2017-10-07T12:27:42.445Z,63.20
2017-10-07T12:28:42.482Z,63.10
2017-10-07T12:29:42.522Z,61.47
2017-10-07T12:30:42.560Z,63.10
2017-10-07T12:31:42.597Z,62.15
2017-10-07T12:32:42.631Z,62.62
2017-10-07T12:33:42.670Z,61.76
2017-10-07T12:34:42.706Z,61.38
2017-10-07T12:35:42.746Z,61.86
2017-10-07T12:36:42.781Z,61.47
2017-10-07T12:37:42.817Z,61.86
2017-10-07T12:38:42.854Z,61.86
2017-10-07T12:39:42.894Z,61.76
2017-10-07T12:40:42.929Z,62.91
2017-10-07T12:41:42.965Z,63.10
2017-10-07T12:42:43.003Z,62.62
2017-10-07T12:43:43.042Z,62.34
2017-10-07T12:44:43.074Z,62.05
2017-10-07T12:45:43.112Z,61.95
2017-10-07T12:46:43.150Z,62.52
2017-10-07T12:47:43.191Z,62.15
2017-10-07T12:48:43.232Z,62.62
2017-10-07T12:49:43.259Z,62.52
2017-10-07T12:50:43.306Z,62.52
2017-10-07T12:51:43.337Z,63.00
2017-10-07T12:52:43.369Z,62.71